Time;durP1;ratioP1;P1;durP2;ratioP2;P2;SDS_P1;SDS_P2;PMS_P1;PMS_P2;Temp;Humidity;BMP_temperature;BMP_pressure;BME280_temperature;BME280_humidity;BME280_pressure;Samples;Min_cycle;Max_cycle;Signal;HPM_P1;HPM_P2
2022/12/14 00:02:10;;;;;;;4.93;3.05;;;0.20;99.90;;;0.28;67.83;99472.84;5012725;28;20211;-67
2022/12/14 00:04:37;;;;;;;8.35;3.95;;;0.30;99.90;;;0.24;68.67;99467.00;5012266;28;20261;-67
2022/12/14 00:07:04;;;;;;;6.22;3.85;;;0.20;99.90;;;0.26;69.00;99472.06;5013756;28;20263;-67
2022/12/14 00:09:31;;;;;;;4.60;3.45;;;0.20;99.90;;;0.19;69.40;99475.84;5006948;28;20226;-66
2022/12/14 00:11:58;;;;;;;7.05;4.40;;;0.30;99.90;;;0.23;69.57;99464.53;4991276;28;20205;-66
2022/12/14 00:14:25;;;;;;;5.72;3.70;;;0.30;99.90;;;0.24;69.81;99461.03;4992606;28;20214;-66
2022/12/14 00:16:52;;;;;;;3.03;2.83;;;0.20;99.90;;;0.29;69.62;99459.09;4994162;28;20733;-67
2022/12/14 00:19:18;;;;;;;4.78;3.22;;;0.30;99.90;;;0.29;69.84;99447.09;4995955;28;20211;-66
2022/12/14 00:21:45;;;;;;;3.35;2.95;;;0.30;99.90;;;0.20;70.14;99441.56;4995236;28;20222;-67
2022/12/14 00:24:12;;;;;;;3.88;3.08;;;0.30;99.90;;;0.26;70.12;99446.41;5010947;28;20226;-66
2022/12/14 00:26:39;;;;;;;4.95;3.78;;;0.30;99.90;;;0.27;70.16;99441.22;5007889;28;20198;-67
2022/12/14 00:29:06;;;;;;;7.90;3.47;;;0.30;99.90;;;0.28;70.65;99445.44;5011693;28;20207;-67
2022/12/14 00:31:33;;;;;;;6.63;4.00;;;0.30;99.90;;;0.25;70.54;99437.91;5012223;28;20201;-66
2022/12/14 00:34:00;;;;;;;6.85;4.30;;;0.30;99.90;;;0.29;70.51;99430.88;5012465;28;20717;-66
2022/12/14 00:36:30;;;;;;;4.32;3.00;;;0.30;99.90;;;0.12;71.13;99413.75;5012528;28;20213;-68
2022/12/14 00:38:57;;;;;;;7.07;4.13;;;0.20;99.90;;;0.09;70.98;99413.06;4999516;28;20296;-66
2022/12/14 00:41:23;;;;;;;4.30;3.10;;;0.20;99.90;;;0.06;71.97;99413.22;5008505;28;20209;-66
2022/12/14 00:43:50;;;;;;;4.43;3.47;;;0.10;99.90;;;0.12;71.39;99418.88;5000976;28;20363;-66
2022/12/14 00:46:17;;;;;;;4.60;3.00;;;0.10;99.90;;;0.01;71.52;99416.00;5009070;28;20296;-66
2022/12/14 00:48:45;;;;;;;2.70;2.50;;;0.10;99.90;;;0.10;71.43;99418.13;5011834;28;20249;-66
2022/12/14 00:51:13;;;;;;;4.70;3.35;;;0.10;99.90;;;0.17;71.05;99416.91;4995741;28;20201;-66
2022/12/14 00:53:43;;;;;;;2.72;2.50;;;0.10;99.90;;;0.17;71.27;99416.09;5012911;28;20275;-66
2022/12/14 00:56:11;;;;;;;2.55;1.95;;;0.20;99.90;;;0.22;71.53;99414.94;4994734;28;20300;-66
2022/12/14 00:58:38;;;;;;;3.85;2.80;;;0.20;99.90;;;0.21;72.43;99415.03;4994723;28;20216;-67
2022/12/14 01:01:12;;;;;;;3.25;2.95;;;0.20;99.90;;;0.20;72.35;99403.09;4996287;28;20214;-65
2022/12/14 01:03:39;;;;;;;6.45;3.55;;;0.30;99.90;;;0.25;72.45;99401.16;5007294;28;20319;-67
2022/12/14 01:06:17;;;;;;;6.28;2.90;;;0.20;99.90;;;0.26;71.22;99392.53;5000913;28;20254;-66
2022/12/14 01:08:44;;;;;;;5.07;3.13;;;0.30;99.90;;;0.14;72.47;99394.00;5017008;28;20209;-67
2022/12/14 01:11:12;;;;;;;5.65;3.40;;;0.30;99.90;;;0.19;72.24;99396.34;4991899;28;20221;-66
2022/12/14 01:13:40;;;;;;;5.47;3.88;;;0.20;99.90;;;0.12;72.86;99394.97;5004831;28;20226;-67
2022/12/14 01:16:13;;;;;;;4.78;2.85;;;0.30;99.90;;;0.20;72.26;99388.56;4993860;28;20673;-67
2022/12/14 01:18:42;;;;;;;4.20;2.95;;;0.20;99.90;;;0.20;71.79;99390.28;4975669;28;20301;-67
2022/12/14 01:21:14;;;;;;;2.75;2.55;;;0.20;99.90;;;0.22;71.92;99391.88;5004413;28;20297;-67
2022/12/14 01:23:43;;;;;;;5.45;3.08;;;0.20;99.90;;;0.26;72.23;99393.38;5011539;28;20232;-66
2022/12/14 01:26:12;;;;;;;3.85;2.60;;;0.30;99.90;;;0.32;71.61;99392.25;4989736;28;20255;-66
2022/12/14 01:28:39;;;;;;;3.83;2.85;;;0.30;99.90;;;0.28;72.14;99389.00;5009877;28;20629;-65
2022/12/14 01:31:17;;;;;;;8.30;3.30;;;0.30;99.90;;;0.31;72.00;99391.41;5001036;28;20202;-67
2022/12/14 01:33:44;;;;;;;4.55;2.92;;;0.30;99.90;;;0.29;72.33;99382.13;4994039;28;20606;-67
2022/12/14 01:36:17;;;;;;;3.60;2.90;;;0.30;99.90;;;0.32;71.78;99382.00;4994580;28;20213;-67
2022/12/14 01:38:45;;;;;;;3.17;2.63;;;0.30;99.90;;;0.24;72.21;99378.97;4992836;28;20255;-67
2022/12/14 01:41:38;;;;;;;7.07;3.60;;;0.30;99.90;;;0.28;71.86;99380.50;5009643;28;20213;-67
2022/12/14 01:44:07;;;;;;;2.90;2.70;;;0.30;99.90;;;0.33;71.45;99381.06;4990367;28;20248;-67
2022/12/14 01:46:40;;;;;;;2.80;2.35;;;0.30;99.90;;;0.34;71.45;99377.63;5009040;28;20216;-67
2022/12/14 01:49:22;;;;;;;4.70;3.25;;;0.30;99.90;;;0.43;70.39;99375.41;5010309;28;20202;-66
2022/12/14 01:52:14;;;;;;;4.47;2.78;;;0.40;99.90;;;0.39;70.49;99368.75;4992931;28;20563;-66
2022/12/14 01:54:47;;;;;;;5.65;3.05;;;0.40;99.90;;;0.32;71.48;99361.47;5009347;28;20202;-66
2022/12/14 01:57:18;;;;;;;3.95;3.08;;;0.40;99.90;;;0.34;71.99;99367.34;4984754;28;20241;-66
2022/12/14 01:59:46;;;;;;;4.80;2.80;;;0.40;99.90;;;0.36;72.05;99363.78;5005342;28;20207;-66
2022/12/14 02:02:15;;;;;;;3.33;2.78;;;0.40;99.90;;;0.49;71.70;99358.88;4996273;28;20202;-66
2022/12/14 02:04:51;;;;;;;5.18;3.17;;;0.40;99.90;;;0.36;71.86;99355.28;5011303;28;20225;-66
2022/12/14 02:07:18;;;;;;;2.85;2.45;;;0.40;99.90;;;0.34;71.89;99359.66;4977890;28;20215;-66
2022/12/14 02:09:46;;;;;;;4.13;3.25;;;0.40;99.90;;;0.34;71.96;99349.41;5009356;28;20626;-67
2022/12/14 02:12:26;;;;;;;2.92;2.20;;;0.40;99.90;;;0.31;71.55;99346.97;5011016;28;20194;-66
2022/12/14 02:14:54;;;;;;;4.53;2.85;;;0.40;99.90;;;0.34;71.22;99355.34;4992571;28;20206;-66
2022/12/14 02:17:21;;;;;;;5.25;3.22;;;0.40;99.90;;;0.39;70.87;99362.81;4995766;28;20674;-66
2022/12/14 02:19:48;;;;;;;2.70;2.50;;;0.40;99.90;;;0.41;71.07;99355.84;4997088;28;20214;-66
2022/12/14 02:23:08;;;;;;;5.28;3.00;;;0.40;99.90;;;0.44;71.44;99348.00;4993665;28;20214;-66
2022/12/14 02:26:20;;;;;;;4.05;2.85;;;0.40;99.90;;;0.39;71.87;99342.28;4992142;28;20231;-67
2022/12/14 02:29:08;;;;;;;3.13;2.42;;;0.40;99.90;;;0.38;72.64;99338.91;4970950;28;20199;-66
2022/12/14 02:32:01;;;;;;;2.92;2.00;;;0.40;99.90;;;0.43;72.44;99352.31;4990173;28;20253;-67
2022/12/14 02:34:31;;;;;;;4.65;3.15;;;0.40;99.90;;;0.49;71.65;99346.06;5008949;28;20344;-66
2022/12/14 02:37:03;;;;;;;2.45;2.30;;;0.40;99.90;;;0.55;72.08;99346.56;5008544;28;20245;-66
2022/12/14 02:40:01;;;;;;;3.78;2.67;;;0.50;99.90;;;0.52;71.85;99340.75;4990862;28;20211;-67
2022/12/14 02:42:55;;;;;;;3.58;3.22;;;0.50;99.90;;;0.52;71.79;99336.44;5025645;22;20324;-67
2022/12/14 02:46:02;;;;;;;3.95;2.80;;;0.50;99.90;;;0.45;72.22;99332.53;4972409;28;20233;-68
2022/12/14 02:48:37;;;;;;;3.67;2.92;;;0.50;99.90;;;0.52;71.33;99322.78;4954318;28;20215;-68
2022/12/14 02:51:45;;;;;;;3.55;2.60;;;0.50;99.90;;;0.52;71.24;99325.34;4971506;28;20631;-68
2022/12/14 02:54:22;;;;;;;5.10;3.63;;;0.50;99.90;;;0.48;71.73;99319.56;5006859;28;20226;-69
2022/12/14 02:57:02;;;;;;;3.53;3.22;;;0.50;99.90;;;0.43;72.63;99312.97;4956792;28;20586;-69
2022/12/14 02:59:32;;;;;;;3.35;3.05;;;0.50;99.90;;;0.45;72.52;99311.16;4981552;28;20208;-68
2022/12/14 03:02:01;;;;;;;4.65;3.30;;;0.50;99.90;;;0.46;72.21;99303.41;4975968;28;20211;-69
2022/12/14 03:04:28;;;;;;;3.63;3.33;;;0.50;99.90;;;0.48;71.74;99301.59;4975584;28;20238;-68
2022/12/14 03:07:04;;;;;;;3.13;2.83;;;0.50;99.90;;;0.50;71.04;99296.38;4992682;28;20206;-68
2022/12/14 03:09:31;;;;;;;2.92;2.72;;;0.50;99.90;;;0.53;70.90;99304.72;4978277;28;20199;-68
2022/12/14 03:12:09;;;;;;;4.38;2.78;;;0.50;99.90;;;0.50;70.72;99304.06;4980704;28;20202;-68
2022/12/14 03:14:43;;;;;;;5.40;3.17;;;0.50;99.90;;;0.62;70.93;99303.41;4978176;28;20234;-67
2022/12/14 03:17:18;;;;;;;4.65;2.80;;;0.50;99.90;;;0.56;71.50;99299.44;4993613;28;20667;-69
2022/12/14 03:20:00;;;;;;;3.88;2.80;;;0.60;99.90;;;0.50;71.48;99294.63;4978063;28;20217;-65
2022/12/14 03:22:58;;;;;;;4.43;3.10;;;0.50;99.90;;;0.56;71.23;99302.00;5010254;28;20207;-67
2022/12/14 03:25:42;;;;;;;2.83;2.50;;;0.60;99.90;;;0.59;71.14;99298.47;4995291;28;20230;-67
2022/12/14 03:28:44;;;;;;;2.60;2.40;;;0.50;99.90;;;0.57;71.54;99300.28;4977929;28;20354;-68
2022/12/14 03:31:31;;;;;;;2.65;2.45;;;0.50;99.90;;;0.56;72.10;99298.63;4988904;28;20205;-68
2022/12/14 03:34:01;;;;;;;2.33;1.83;;;0.50;99.90;;;0.60;72.70;99285.53;4989893;28;20235;-67
2022/12/14 03:37:18;;;;;;;2.45;2.25;;;0.50;99.90;;;0.63;73.04;99282.00;4987070;28;20210;-67
2022/12/14 03:39:46;;;;;;;3.45;2.60;;;0.60;99.90;;;0.62;73.17;99281.16;4993369;28;20248;-68
2022/12/14 03:42:34;;;;;;;2.33;2.20;;;0.60;99.90;;;0.61;73.10;99278.69;4979210;28;20214;-67
2022/12/14 03:45:15;;;;;;;4.22;2.95;;;0.50;99.90;;;0.59;72.72;99283.06;4977997;28;20231;-68
2022/12/14 03:48:20;;;;;;;3.65;2.17;;;0.60;99.90;;;0.61;73.16;99273.53;4961535;28;20659;-67
2022/12/14 03:51:21;;;;;;;3.42;3.00;;;0.60;99.90;;;0.65;72.96;99277.59;4978788;28;20289;-68
2022/12/14 03:54:19;;;;;;;2.50;2.30;;;0.60;99.90;;;0.62;72.68;99268.31;4964358;28;20247;-67
2022/12/14 03:56:54;;;;;;;2.05;1.95;;;0.60;99.90;;;0.65;72.86;99267.34;4990075;28;20204;-68
2022/12/14 03:59:26;;;;;;;5.32;2.88;;;0.60;99.90;;;0.63;72.79;99264.03;4994731;28;20218;-68
2022/12/14 04:02:27;;;;;;;4.53;2.50;;;0.60;99.90;;;0.61;72.79;99266.69;5009299;28;20293;-67
2022/12/14 04:05:06;;;;;;;3.67;2.90;;;0.60;99.90;;;0.66;72.94;99254.41;4951998;28;20220;-68
2022/12/14 04:08:11;;;;;;;3.40;2.85;;;0.60;99.90;;;0.64;73.15;99257.97;4995422;28;20269;-68
2022/12/14 04:20:18;;;;;;;6.15;3.72;;;0.60;99.90;;;0.71;72.99;99228.50;4979158;28;20213;-68
2022/12/14 04:23:07;;;;;;;4.00;2.55;;;0.60;99.90;;;0.72;72.77;99228.41;4995916;28;20653;-68
2022/12/14 04:31:22;;;;;;;6.25;3.05;;;0.60;99.90;;;0.66;73.24;99236.44;4976935;28;20216;-68
2022/12/14 04:33:53;;;;;;;4.03;3.60;;;0.60;99.90;;;0.69;73.36;99232.91;4977250;28;20223;-67
2022/12/14 04:36:29;;;;;;;5.28;3.78;;;0.60;99.90;;;0.67;73.46;99237.28;4978343;28;20211;-69
2022/12/14 04:39:06;;;;;;;6.20;3.72;;;0.60;99.90;;;0.64;73.52;99238.28;4984525;28;20211;-68
2022/12/14 04:41:42;;;;;;;5.13;3.40;;;0.60;99.90;;;0.66;74.16;99248.47;4991526;28;20291;-67
2022/12/14 04:44:22;;;;;;;5.45;3.58;;;0.60;99.90;;;0.62;74.29;99236.69;4994959;28;20231;-68
2022/12/14 04:46:52;;;;;;;4.47;3.80;;;0.60;99.90;;;0.64;74.17;99224.59;4987779;28;20202;-68
2022/12/14 04:49:27;;;;;;;3.40;2.95;;;0.60;99.90;;;0.63;74.47;99235.78;4976893;28;20210;-67
2022/12/14 04:52:02;;;;;;;4.22;3.45;;;0.60;99.90;;;0.54;74.56;99247.38;4977378;28;20214;-69
2022/12/14 04:54:46;;;;;;;3.20;2.90;;;0.60;99.90;;;0.46;75.27;99243.56;4976796;28;20229;-68
2022/12/14 04:57:41;;;;;;;5.43;3.30;;;0.50;99.90;;;0.53;75.02;99227.75;4992974;28;20195;-67
2022/12/14 05:00:09;;;;;;;6.00;4.28;;;0.50;99.90;;;0.34;75.12;99221.13;4993043;28;20215;-67
2022/12/14 05:03:12;;;;;;;2.97;2.67;;;0.50;99.90;;;0.40;75.52;99231.06;4978909;28;20205;-67
2022/12/14 05:06:13;;;;;;;5.22;3.50;;;0.40;99.90;;;0.39;75.57;99214.00;4994809;28;20229;-64
2022/12/14 05:09:05;;;;;;;3.28;3.08;;;0.40;99.90;;;0.35;75.09;99218.47;4991587;28;20194;-67
2022/12/14 05:12:14;;;;;;;6.35;4.00;;;0.40;99.90;;;0.40;75.08;99220.78;4976361;28;20264;-67
2022/12/14 05:14:54;;;;;;;4.15;3.38;;;0.40;99.90;;;0.46;74.35;99221.31;4968881;28;20225;-67
2022/12/14 05:17:21;;;;;;;6.65;3.63;;;0.40;99.90;;;0.43;74.69;99220.63;4972195;28;20209;-69
2022/12/14 05:19:49;;;;;;;6.43;3.92;;;0.50;99.90;;;0.42;74.63;99219.81;4974300;28;20210;-68
2022/12/14 05:22:17;;;;;;;5.70;4.15;;;0.40;99.90;;;0.10;76.07;99218.09;4977925;28;20210;-68
2022/12/14 05:24:44;;;;;;;4.18;3.80;;;0.40;99.90;;;0.17;76.23;99228.88;5008622;28;20222;-67
2022/12/14 05:27:11;;;;;;;3.53;3.00;;;0.30;99.90;;;0.25;75.95;99226.72;4996717;28;20206;-67
2022/12/14 05:29:38;;;;;;;6.13;3.95;;;0.30;99.90;;;0.31;75.61;99213.56;4996853;28;20207;-68
2022/12/14 05:32:04;;;;;;;5.30;4.13;;;0.30;99.90;;;0.25;76.05;99211.34;4992879;28;20275;-68
2022/12/14 05:34:31;;;;;;;4.75;3.17;;;0.30;99.90;;;0.27;75.91;99217.22;4996942;28;20741;-70
2022/12/14 05:36:58;;;;;;;4.05;3.60;;;0.30;99.90;;;0.34;75.99;99211.66;5014387;28;20209;-68
2022/12/14 05:39:25;;;;;;;4.30;3.30;;;0.30;99.90;;;0.19;76.49;99211.66;4975398;28;20217;-67
2022/12/14 05:41:52;;;;;;;6.97;4.30;;;0.30;99.90;;;0.18;76.73;99213.41;4993597;28;20740;-67
2022/12/14 05:44:19;;;;;;;7.35;4.50;;;0.30;99.90;;;0.26;76.75;99207.84;4993234;28;20320;-68
2022/12/14 05:46:46;;;;;;;8.13;4.40;;;0.30;99.90;;;0.16;77.44;99194.69;4993536;28;20199;-69
2022/12/14 05:49:13;;;;;;;6.78;4.85;;;0.30;99.90;;;0.15;77.89;99189.66;5004351;28;20195;-68
2022/12/14 05:51:40;;;;;;;6.22;4.43;;;0.30;99.90;;;0.25;78.01;99203.63;4976770;28;20232;-68
2022/12/14 05:54:07;;;;;;;5.93;4.03;;;0.30;99.90;;;0.23;77.75;99202.91;5004326;28;20728;-68
2022/12/14 05:56:34;;;;;;;8.57;4.40;;;0.30;99.90;;;0.15;78.30;99205.03;4991971;28;20214;-68
2022/12/14 05:59:01;;;;;;;7.55;4.72;;;0.30;99.90;;;0.04;79.56;99197.06;5005900;28;20208;-67
2022/12/14 06:01:28;;;;;;;7.45;4.45;;;0.20;99.90;;;0.05;80.11;99188.47;4993357;28;20214;-67
2022/12/14 06:03:55;;;;;;;6.90;4.80;;;0.10;99.90;;;0.04;80.19;99176.56;4993116;28;20276;-68
2022/12/14 06:06:22;;;;;;;9.27;4.57;;;0.20;99.90;;;0.10;80.30;99177.06;4992005;28;20289;-68
2022/12/14 06:08:49;;;;;;;5.30;4.18;;;0.20;99.90;;;0.17;80.35;99180.13;4991938;28;20221;-68
2022/12/14 06:11:21;;;;;;;0.52;0.52;;;0.20;99.90;;;0.18;80.31;99177.47;4992764;28;20213;-67
2022/12/14 06:13:48;;;;;;;3.53;2.90;;;0.20;99.90;;;0.20;80.39;99167.13;4998396;28;20231;-67
2022/12/14 06:16:23;;;;;;;4.05;2.72;;;0.20;99.90;;;-0.04;81.86;99159.81;4994540;28;20211;-67
2022/12/14 06:18:56;;;;;;;6.80;3.80;;;0.10;99.90;;;0.07;82.14;99158.44;4984152;28;20209;-67
2022/12/14 06:21:30;;;;;;;5.78;4.53;;;0.10;99.90;;;-0.10;83.58;99144.78;4993548;28;20217;-68
2022/12/14 06:23:58;;;;;;;5.35;3.88;;;0.10;99.90;;;-0.34;85.27;99140.91;5007167;28;20229;-68
2022/12/14 06:26:26;;;;;;;6.10;3.72;;;0.00;99.90;;;-0.34;85.64;99142.66;4985923;28;20224;-68
2022/12/14 06:28:55;;;;;;;8.10;4.10;;;-0.10;99.90;;;-0.20;85.84;99138.47;4993283;28;20201;-68
2022/12/14 06:31:28;;;;;;;8.25;4.00;;;-0.10;99.90;;;-0.51;87.48;99135.00;4976149;28;20205;-68
2022/12/14 06:33:58;;;;;;;5.68;3.65;;;-0.20;99.90;;;-0.55;88.80;99142.00;4993929;28;20233;-68
2022/12/14 06:36:33;;;;;;;8.40;4.53;;;-0.30;99.90;;;-0.27;87.82;99129.44;4992825;28;20214;-68
2022/12/14 06:39:05;;;;;;;6.97;4.40;;;-0.20;99.90;;;-0.46;89.23;99115.91;4974100;28;20213;-67
2022/12/14 06:41:32;;;;;;;3.10;2.75;;;-0.20;99.90;;;-0.43;89.73;99125.19;5005598;28;20665;-67
2022/12/14 06:44:09;;;;;;;6.50;4.18;;;-0.30;99.90;;;-0.34;88.94;99125.53;4990824;28;20227;-68
2022/12/14 06:46:36;;;;;;;5.65;3.60;;;-0.30;99.90;;;-0.27;88.66;99116.63;4975188;28;20225;-67
2022/12/14 06:49:05;;;;;;;5.03;3.05;;;-0.20;99.90;;;-0.21;88.56;99111.19;4960120;28;20218;-66
2022/12/14 06:51:38;;;;;;;3.10;2.25;;;-0.20;99.90;;;-0.21;88.83;99100.91;4998501;28;20663;-66
2022/12/14 06:54:05;;;;;;;5.72;3.15;;;-0.20;99.90;;;-0.14;88.47;99086.88;4977124;28;20598;-67
2022/12/14 06:56:32;;;;;;;5.47;3.13;;;-0.10;99.90;;;-0.22;88.87;99091.59;4994673;28;20669;-67
2022/12/14 06:58:59;;;;;;;6.82;3.72;;;-0.20;99.90;;;-0.33;88.77;99087.91;4995152;28;20226;-68
2022/12/14 07:01:27;;;;;;;2.90;2.67;;;-0.20;99.90;;;-0.32;88.71;99089.59;4995979;28;20605;-67
2022/12/14 07:03:58;;;;;;;4.22;2.50;;;-0.20;99.90;;;-0.31;89.12;99104.88;4992775;28;20854;-68
2022/12/14 07:06:30;;;;;;;5.13;3.72;;;-0.20;99.90;;;-0.33;89.80;99108.41;4998998;28;20236;-67
2022/12/14 07:08:59;;;;;;;9.63;5.47;;;-0.20;99.90;;;-0.16;89.21;99098.13;5003991;28;20208;-67
2022/12/14 07:11:27;;;;;;;1.42;1.23;;;-0.20;99.90;;;-0.13;88.92;99105.66;4990183;28;20232;-67
2022/12/14 07:13:55;;;;;;;4.95;2.70;;;-0.10;99.90;;;-0.18;88.76;99100.78;4987909;28;20230;-66
2022/12/14 07:16:25;;;;;;;6.45;4.20;;;-0.10;99.90;;;-0.12;88.47;99090.19;4994639;28;20209;-67
2022/12/14 07:18:55;;;;;;;6.65;4.40;;;-0.10;99.90;;;-0.15;88.18;99085.22;4995917;28;20209;-68
2022/12/14 07:21:23;;;;;;;6.05;3.65;;;-0.10;99.90;;;-0.28;89.44;99094.44;5007892;28;20205;-67
2022/12/14 07:23:51;;;;;;;6.45;4.10;;;-0.10;99.90;;;-0.09;88.96;99095.16;4996507;28;20303;-67
2022/12/14 07:26:23;;;;;;;8.18;4.55;;;-0.10;99.90;;;-0.19;89.70;99096.53;4995343;28;20757;-67
2022/12/14 07:28:51;;;;;;;7.63;4.30;;;-0.10;99.90;;;-0.14;89.90;99109.13;4995795;28;20196;-68
2022/12/14 07:31:25;;;;;;;6.68;4.38;;;-0.10;99.90;;;-0.13;89.80;99095.41;5006177;28;20206;-67
2022/12/14 07:33:54;;;;;;;0.50;0.50;;;-0.10;99.90;;;-0.03;89.26;99092.28;4978897;28;20631;-67
2022/12/14 07:36:23;;;;;;;4.10;2.30;;;0.00;99.90;;;0.14;88.82;99080.28;4999695;28;20222;-68
2022/12/14 07:38:51;;;;;;;8.23;4.10;;;0.00;99.90;;;0.15;88.26;99071.69;4978882;28;20220;-67
2022/12/14 07:41:21;;;;;;;8.57;4.15;;;0.10;99.90;;;0.24;88.73;99076.28;4992694;28;20280;-67
2022/12/14 07:43:51;;;;;;;8.90;4.85;;;0.10;99.90;;;0.12;89.22;99080.38;4992697;28;20232;-66
2022/12/14 07:46:21;;;;;;;4.60;3.47;;;0.20;99.90;;;0.20;89.16;99100.47;4991832;28;20762;-67
2022/12/14 07:48:51;;;;;;;7.15;4.00;;;0.20;99.90;;;-0.04;89.09;99097.47;4987886;28;20203;-67
2022/12/14 07:51:22;;;;;;;8.85;5.40;;;0.10;99.90;;;-0.06;89.80;99097.56;4982294;28;20635;-67
2022/12/14 07:53:50;;;;;;;10.80;6.20;;;0.10;99.90;;;0.10;89.12;99109.56;4993179;28;20226;-67
2022/12/14 07:56:20;;;;;;;4.47;3.42;;;0.10;99.90;;;0.16;88.59;99098.97;4978227;28;20220;-67
2022/12/14 07:58:48;;;;;;;11.55;7.20;;;0.10;99.90;;;-0.08;89.73;99094.25;4994542;28;20257;-67
2022/12/14 08:01:24;;;;;;;8.75;5.15;;;0.10;99.90;;;0.03;88.91;99087.72;5009911;28;20208;-67
2022/12/14 08:03:58;;;;;;;9.55;5.85;;;0.10;99.90;;;0.06;89.62;99085.81;5002304;28;20252;-67
2022/12/14 08:06:28;;;;;;;10.07;5.53;;;0.10;99.90;;;0.11;89.44;99072.78;4996170;28;20234;-68
2022/12/14 08:08:56;;;;;;;3.90;3.22;;;0.10;99.90;;;-0.16;90.96;99068.19;4993193;28;20210;-67
2022/12/14 08:11:24;;;;;;;8.02;4.93;;;0.10;99.90;;;-0.16;90.62;99078.44;4992187;28;20205;-67
2022/12/14 08:14:07;;;;;;;11.27;5.95;;;0.00;99.90;;;-0.12;91.09;99077.38;4977139;28;20230;-67
2022/12/14 08:16:34;;;;;;;11.27;5.65;;;0.00;99.90;;;-0.17;91.49;99086.22;5002252;28;20208;-67
2022/12/14 08:19:01;;;;;;;15.20;7.70;;;0.00;99.90;;;-0.36;92.11;99096.59;4994520;28;20205;-68
2022/12/14 08:21:28;;;;;;;13.40;7.32;;;-0.10;99.90;;;-0.22;92.54;99098.44;4994160;28;20208;-67
2022/12/14 08:23:56;;;;;;;8.70;4.50;;;-0.10;99.90;;;-0.17;91.58;99096.47;5002360;28;20296;-67
2022/12/14 08:26:24;;;;;;;14.57;7.43;;;-0.10;99.90;;;-0.11;92.13;99104.66;4992493;28;20266;-68
2022/12/14 08:28:59;;;;;;;7.18;5.25;;;-0.10;99.90;;;-0.16;91.70;99103.25;4993961;28;20209;-67
2022/12/14 08:31:29;;;;;;;7.07;4.70;;;-0.10;99.90;;;-0.27;92.56;99103.81;4994706;28;20212;-67
2022/12/14 08:33:58;;;;;;;10.00;6.55;;;-0.10;99.90;;;-0.08;91.64;99107.06;4993584;28;20225;-67
2022/12/14 08:36:29;;;;;;;9.40;5.38;;;-0.10;99.90;;;-0.18;92.35;99110.19;4994317;28;20634;-67
2022/12/14 08:39:02;;;;;;;15.90;8.43;;;-0.10;99.90;;;-0.27;92.82;99101.25;4991740;28;20205;-64
2022/12/14 08:41:30;;;;;;;12.77;7.13;;;-0.10;99.90;;;-0.31;92.59;99112.56;4990767;28;20220;-67
2022/12/14 08:43:59;;;;;;;8.38;5.60;;;-0.10;99.90;;;-0.33;92.48;99105.88;5023813;23;20232;-66
2022/12/14 08:46:29;;;;;;;7.63;5.40;;;-0.10;99.90;;;-0.40;93.93;99107.91;5012561;28;20221;-67
2022/12/14 08:48:56;;;;;;;1.65;1.55;;;-0.20;99.90;;;-0.21;92.36;99108.63;5026425;28;20291;-66
2022/12/14 08:51:26;;;;;;;8.48;5.55;;;-0.10;99.90;;;-0.28;93.34;99109.03;5013316;28;20738;-67
2022/12/14 08:53:54;;;;;;;6.43;4.93;;;-0.20;99.90;;;-0.13;92.94;99103.09;5014082;28;20725;-67
2022/12/14 08:56:25;;;;;;;12.48;5.28;;;-0.10;99.90;;;-0.21;91.97;99089.84;5007912;28;20279;-67
2022/12/14 08:58:52;;;;;;;8.93;3.67;;;-0.10;99.90;;;-0.29;93.22;99074.03;5010672;28;20616;-66
2022/12/14 09:01:26;;;;;;;13.85;7.55;;;-0.10;99.90;;;-0.26;92.77;99079.84;5010422;28;20676;-66
2022/12/14 09:04:05;;;;;;;19.23;7.68;;;-0.10;99.90;;;-0.25;93.40;99081.50;4996197;28;20756;-65
2022/12/14 09:06:35;;;;;;;11.60;6.45;;;-0.10;99.90;;;-0.50;94.62;99083.69;4992893;28;20307;-66
2022/12/14 09:09:04;;;;;;;15.68;8.80;;;-0.20;99.90;;;-0.41;94.09;99082.38;4993950;28;20271;-66
2022/12/14 09:11:39;;;;;;;7.65;3.83;;;-0.20;99.90;;;-0.46;94.55;99089.47;4992578;28;20636;-65
2022/12/14 09:14:06;;;;;;;10.75;6.32;;;-0.20;99.90;;;-0.50;94.89;99087.97;4989251;28;20221;-67
2022/12/14 09:16:33;;;;;;;11.60;7.10;;;-0.20;99.90;;;-0.59;94.90;99094.38;5009776;28;20207;-66
2022/12/14 09:19:00;;;;;;;11.95;5.97;;;-0.30;99.90;;;-0.61;96.29;99096.19;4993147;28;20212;-66
2022/12/14 09:21:26;;;;;;;10.27;6.05;;;-0.30;99.90;;;-0.27;93.77;99100.41;5009717;28;20205;-66
2022/12/14 09:23:53;;;;;;;11.15;5.40;;;-0.20;99.90;;;-0.45;94.87;99094.53;5006800;28;20226;-69
2022/12/14 09:26:26;;;;;;;10.05;6.40;;;-0.30;99.90;;;-0.37;95.11;99097.50;5007050;28;20320;-66
2022/12/14 09:28:55;;;;;;;5.15;3.10;;;-0.30;99.90;;;-0.24;93.76;99092.56;5011559;28;20203;-68
2022/12/14 09:31:24;;;;;;;8.90;4.40;;;-0.20;99.90;;;-0.32;94.34;99092.97;4992534;28;20194;-66
2022/12/14 09:33:51;;;;;;;4.68;2.67;;;-0.20;99.90;;;-0.47;95.46;99098.06;5010348;28;20311;-68
2022/12/14 09:36:22;;;;;;;7.32;4.05;;;-0.20;99.90;;;-0.45;94.65;99089.41;4993839;28;20208;-67
2022/12/14 09:38:50;;;;;;;1.40;1.30;;;-0.20;99.90;;;-0.35;95.27;99084.63;4996688;28;20299;-66
2022/12/14 09:41:33;;;;;;;6.32;4.43;;;-0.20;99.90;;;-0.34;93.97;99076.84;5008033;28;20310;-66
2022/12/14 09:44:36;;;;;;;14.45;4.55;;;-0.20;99.90;;;-0.17;93.78;99074.22;4995067;28;20263;-66
2022/12/14 09:47:29;;;;;;;0.85;0.85;;;-0.10;99.90;;;0.11;92.87;99086.38;5004565;28;20227;-66
2022/12/14 09:50:18;;;;;;;8.88;4.05;;;0.00;99.90;;;0.22;92.87;99084.09;5005783;28;20206;-66
2022/12/14 09:52:55;;;;;;;7.88;3.38;;;0.10;99.90;;;0.26;92.92;99084.72;4980813;28;20209;-66
2022/12/14 09:55:43;;;;;;;2.33;2.22;;;0.20;99.90;;;0.37;91.81;99095.22;5009602;28;20200;-67
2022/12/14 09:58:19;;;;;;;6.82;4.25;;;0.30;99.90;;;0.57;90.67;99089.84;5011497;28;20284;-66
2022/12/14 10:01:21;;;;;;;19.83;7.45;;;0.40;99.90;;;0.39;90.75;99086.56;5008936;28;20198;-66
2022/12/14 10:04:12;;;;;;;9.32;4.30;;;0.50;99.90;;;0.49;90.31;99086.88;5009667;28;20451;-66
2022/12/14 10:07:06;;;;;;;8.30;4.28;;;0.50;99.90;;;0.75;89.33;99083.66;5010477;28;20321;-64
2022/12/14 10:09:55;;;;;;;11.23;6.55;;;0.60;99.90;;;0.69;89.63;99078.88;5009291;28;20198;-65
2022/12/14 10:12:44;;;;;;;8.73;5.00;;;0.70;99.90;;;0.56;89.81;99075.34;4990171;28;20213;-64
2022/12/14 10:15:22;;;;;;;9.73;6.00;;;0.70;99.90;;;0.67;89.33;99083.28;5009009;28;20197;-65
2022/12/14 10:18:21;;;;;;;11.43;6.00;;;0.70;99.90;;;0.33;90.54;99074.06;4992719;28;20596;-65
2022/12/14 10:21:15;;;;;;;10.15;5.47;;;0.60;99.90;;;0.51;89.04;99078.16;5013395;28;20310;-64
2022/12/14 10:23:54;;;;;;;12.85;6.65;;;0.60;99.90;;;0.50;89.51;99084.22;4996694;28;20224;-64
2022/12/14 10:26:26;;;;;;;0.52;0.52;;;0.60;99.90;;;0.48;89.84;99092.91;5013217;28;20231;-65
2022/12/14 10:29:05;;;;;;;11.25;5.95;;;0.60;99.90;;;0.43;90.29;99087.19;5013346;28;20205;-64
2022/12/14 10:31:45;;;;;;;6.65;4.63;;;0.50;99.90;;;0.47;90.71;99086.16;4992992;28;20205;-64
2022/12/14 10:34:21;;;;;;;8.35;3.90;;;0.50;99.90;;;0.51;89.76;99085.06;5008135;28;20272;-64
2022/12/14 10:36:58;;;;;;;6.78;3.30;;;0.50;99.90;;;0.38;90.25;99081.50;4996508;28;20208;-65
2022/12/14 10:39:38;;;;;;;5.95;2.97;;;0.50;99.90;;;0.53;89.32;99078.09;5011599;28;20219;-65
2022/12/14 10:42:56;;;;;;;2.70;2.28;;;0.50;99.90;;;0.60;89.81;99069.97;5011397;28;20196;-65
2022/12/14 10:45:47;;;;;;;1.20;1.20;;;0.50;99.90;;;0.52;89.82;99077.28;5004646;28;20629;-65
2022/12/14 10:48:33;;;;;;;0.77;0.77;;;0.60;99.90;;;0.61;90.34;99084.47;5011898;28;20458;-66
2022/12/14 10:51:41;;;;;;;10.27;4.30;;;0.60;99.90;;;0.64;88.23;99078.31;4996378;28;20215;-67
2022/12/14 10:54:38;;;;;;;4.85;3.15;;;0.70;99.90;;;0.74;87.91;99072.59;4995404;28;20253;-66
2022/12/14 10:57:05;;;;;;;11.68;6.00;;;0.80;99.90;;;0.74;87.44;99077.72;4992483;28;20208;-65
2022/12/14 10:59:36;;;;;;;3.45;2.92;;;0.80;99.90;;;0.81;87.28;99085.06;5014556;28;20676;-66
2022/12/14 11:02:27;;;;;;;4.10;2.78;;;0.80;99.90;;;0.93;86.64;99085.22;4999061;28;20267;-66
2022/12/14 11:04:58;;;;;;;4.13;2.50;;;0.80;99.90;;;0.93;87.08;99081.81;4981117;28;20229;-67
2022/12/14 11:07:37;;;;;;;6.15;4.13;;;0.90;99.90;;;0.75;88.60;99089.63;4996510;28;20308;-66
2022/12/14 11:10:15;;;;;;;4.68;2.05;;;0.80;99.90;;;1.08;87.31;99084.31;4994920;28;20206;-65
2022/12/14 11:13:16;;;;;;;14.00;8.27;;;0.90;99.90;;;0.78;87.05;99078.38;5012915;28;20203;-64
2022/12/14 11:15:45;;;;;;;8.60;4.75;;;1.00;99.90;;;0.88;86.90;99079.50;5011934;28;20208;-65
2022/12/14 11:18:14;;;;;;;16.30;3.83;;;1.00;99.90;;;0.90;86.73;99085.38;5014197;28;20269;-66